Time;durP1;ratioP1;P1;durP2;ratioP2;P2;SDS_P1;SDS_P2;PMS_P1;PMS_P2;Temp;Humidity;BMP_temperature;BMP_pressure;BME280_temperature;BME280_humidity;BME280_pressure;Samples;Min_cycle;Max_cycle;Signal;HPM_P1;HPM_P2
2021/04/20 00:00:01;;;;;;;17.92;12.07;;;;;;;7.02;100.00;99850.72;5047390;28;20025;-75
2021/04/20 00:02:26;;;;;;;14.25;11.50;;;;;;;7.43;100.00;99920.84;5052704;28;20116;-76
2021/04/20 00:04:52;;;;;;;14.35;9.88;;;;;;;7.29;100.00;99908.31;5017219;28;20477;-76
2021/04/20 00:07:17;;;;;;;14.80;10.05;;;;;;;7.21;100.00;99901.09;5052297;28;20036;-75
2021/04/20 00:09:43;;;;;;;12.55;9.20;;;;;;;7.06;100.00;99888.53;5052635;28;20032;-74
2021/04/20 00:12:09;;;;;;;14.30;10.00;;;;;;;7.17;100.00;99915.50;5052500;28;20029;-75
2021/04/20 00:14:35;;;;;;;11.55;9.00;;;;;;;6.78;100.00;99846.31;5052215;28;20122;-76
2021/04/20 00:17:01;;;;;;;28.40;13.98;;;;;;;6.73;100.00;99843.56;5052205;28;20017;-74
2021/04/20 00:19:26;;;;;;;13.93;10.77;;;;;;;7.06;100.00;99912.47;5051874;28;20155;-75
2021/04/20 00:21:52;;;;;;;14.60;10.55;;;;;;;7.16;100.00;99915.44;5052141;28;20021;-74
2021/04/20 00:24:17;;;;;;;14.60;10.73;;;;;;;7.23;100.00;99931.16;5051988;28;20025;-74
2021/04/20 00:26:43;;;;;;;16.75;10.90;;;;;;;7.10;100.00;99919.53;5051905;28;20029;-74
2021/04/20 00:29:08;;;;;;;41.97;19.98;;;;;;;7.25;100.00;99928.66;5052023;28;20368;-74
2021/04/20 00:31:34;;;;;;;17.15;11.60;;;;;;;7.10;100.00;99910.91;5041320;28;20782;-73
2021/04/20 00:33:59;;;;;;;14.00;10.85;;;;;;;7.27;100.00;99929.59;5033714;28;20032;-74
2021/04/20 00:36:25;;;;;;;15.88;11.57;;;;;;;6.87;100.00;99863.78;5048467;28;21338;-73
2021/04/20 00:38:50;;;;;;;14.18;10.63;;;;;;;7.37;100.00;99926.59;5031284;28;20024;-78
2021/04/20 00:41:16;;;;;;;14.68;10.75;;;;;;;7.40;100.00;99926.75;5036267;28;20025;-72
2021/04/20 00:43:47;;;;;;;13.63;10.65;;;;;;;7.31;100.00;99908.38;5033684;28;20021;-75
2021/04/20 00:46:15;;;;;;;18.40;11.07;;;;;;;7.28;100.00;99882.59;5029541;28;20451;-75
2021/04/20 00:48:41;;;;;;;15.48;11.43;;;;;;;7.43;100.00;99906.31;5032468;28;20021;-75
2021/04/20 00:51:07;;;;;;;13.30;10.52;;;;;;;7.49;100.00;99930.47;5032260;28;20029;-73
2021/04/20 00:53:33;;;;;;;14.30;10.95;;;;;;;7.47;100.00;99930.41;5038500;28;20044;-75
2021/04/20 00:55:58;;;;;;;15.23;10.07;;;;;;;7.44;100.00;99913.19;5035356;28;20488;-73
2021/04/20 00:58:24;;;;;;;13.98;10.23;;;;;;;7.51;100.00;99927.16;5037589;28;20040;-71
2021/04/20 01:00:50;;;;;;;14.32;10.15;;;;;;;7.59;100.00;99935.19;5051532;28;20441;-70
2021/04/20 01:03:16;;;;;;;13.60;9.98;;;;;;;7.53;100.00;99925.53;5051301;28;20558;-70
2021/04/20 01:05:42;;;;;;;13.88;11.43;;;;;;;7.25;100.00;99880.78;5050780;28;20104;-72
2021/04/20 01:08:10;;;;;;;16.58;12.18;;;;;;;7.28;100.00;99865.47;5051380;28;20082;-70
2021/04/20 01:10:38;;;;;;;15.90;12.52;;;;;;;7.73;100.00;99933.16;5051161;28;20025;-71
2021/04/20 01:13:05;;;;;;;16.77;13.98;;;;;;;7.75;100.00;99927.28;5038133;28;20052;-72
2021/04/20 01:15:32;;;;;;;16.25;13.27;;;;;;;7.75;100.00;99917.00;5033643;28;20066;-70
2021/04/20 01:18:16;;;;;;;15.25;12.43;;;;;;;7.88;100.00;99936.31;5033143;28;20531;-74
2021/04/20 01:20:43;;;;;;;16.00;11.57;;;;;;;7.99;99.86;99936.75;5032765;28;20435;-74
2021/04/20 01:23:31;;;;;;;14.50;11.38;;;;;;;7.93;99.07;99916.81;5032610;28;20030;-76
2021/04/20 01:25:58;;;;;;;12.95;11.00;;;;;;;8.09;98.74;99935.41;5031695;28;20416;-73
2021/04/20 01:28:23;;;;;;;14.77;10.65;;;;;;;7.82;99.04;99917.22;5031264;28;20021;-74
2021/04/20 01:30:49;;;;;;;12.60;9.95;;;;;;;7.95;99.43;99937.47;5036225;28;20502;-70
2021/04/20 01:33:14;;;;;;;12.40;10.27;;;;;;;8.10;99.30;99944.88;5051219;28;20033;-72
2021/04/20 01:35:40;;;;;;;11.88;10.02;;;;;;;7.99;98.69;99923.00;5051265;28;20068;-71
2021/04/20 01:38:07;;;;;;;13.55;9.80;;;;;;;8.20;98.83;99949.56;5050421;28;20447;-71
2021/04/20 01:40:33;;;;;;;14.45;10.48;;;;;;;8.28;97.83;99943.84;5036403;28;20060;-72
2021/04/20 01:42:59;;;;;;;13.15;10.02;;;;;;;8.28;96.99;99951.56;5038278;28;20033;-73
2021/04/20 01:45:27;;;;;;;12.45;9.77;;;;;;;7.90;98.40;99946.66;5050431;28;20032;-71
2021/04/20 01:47:54;;;;;;;13.88;9.88;;;;;;;7.90;99.25;99944.09;5046391;28;20109;-71
2021/04/20 01:50:19;;;;;;;12.30;9.82;;;;;;;7.85;99.37;99943.94;5050623;28;20042;-71
2021/04/20 01:52:46;;;;;;;11.38;9.23;;;;;;;7.43;99.66;99862.63;5050256;28;20017;-72
2021/04/20 01:55:13;;;;;;;13.20;9.38;;;;;;;7.85;99.61;99930.19;5050715;28;20151;-71
2021/04/20 01:57:41;;;;;;;15.40;9.77;;;;;;;7.57;99.58;99875.16;5050909;28;20104;-74
2021/04/20 02:00:12;;;;;;;13.73;10.43;;;;;;;7.53;99.49;99866.44;5050422;28;20025;-71
2021/04/20 02:02:38;;;;;;;12.27;9.48;;;;;;;7.94;99.46;99936.56;5050464;28;20168;-71
2021/04/20 02:05:08;;;;;;;13.10;9.38;;;;;;;8.05;99.24;99941.25;5049955;28;20013;-71
2021/04/20 02:07:34;;;;;;;18.75;11.57;;;;;;;8.08;99.13;99936.22;5051965;28;20059;-71
2021/04/20 02:10:01;;;;;;;14.90;10.13;;;;;;;8.07;98.47;99925.09;5054616;28;20017;-72
2021/04/20 02:12:27;;;;;;;11.25;8.77;;;;;;;8.17;98.51;99946.84;5054446;28;20060;-70
2021/04/20 02:14:53;;;;;;;11.77;9.02;;;;;;;7.84;98.32;99895.91;5054251;28;20409;-73
2021/04/20 02:17:19;;;;;;;9.93;7.97;;;;;;;8.15;98.35;99948.50;5054417;28;20032;-71
2021/04/20 02:19:45;;;;;;;11.68;8.07;;;;;;;8.16;98.44;99947.69;5008168;28;20053;-70
2021/04/20 02:22:11;;;;;;;9.80;7.82;;;;;;;7.97;98.71;99927.22;5054518;28;20039;-70
2021/04/20 02:24:39;;;;;;;10.85;8.55;;;;;;;8.20;98.63;99957.28;5034827;28;20403;-73
2021/04/20 02:27:05;;;;;;;11.57;8.68;;;;;;;8.15;98.27;99939.91;5033402;28;20036;-70
2021/04/20 02:29:30;;;;;;;9.50;7.38;;;;;;;8.17;98.22;99949.41;5054493;28;20052;-71
2021/04/20 02:31:56;;;;;;;10.60;7.85;;;;;;;7.73;99.38;99930.59;5053930;28;20479;-71
2021/04/20 02:34:22;;;;;;;8.60;6.55;;;;;;;7.53;100.00;99943.50;5054070;28;20432;-75
2021/04/20 02:36:51;;;;;;;12.15;8.05;;;;;;;7.45;100.00;99911.50;5036751;28;20060;-71
2021/04/20 02:39:17;;;;;;;10.43;7.35;;;;;;;7.47;100.00;99914.16;5054436;28;20029;-71
2021/04/20 02:41:49;;;;;;;10.93;7.60;;;;;;;7.58;100.00;99951.41;5054028;28;20017;-72
2021/04/20 02:44:15;;;;;;;12.30;7.80;;;;;;;7.38;100.00;99954.03;5054352;28;20025;-70
2021/04/20 02:46:43;;;;;;;11.63;8.00;;;;;;;7.38;100.00;99961.75;5031544;28;20057;-72
2021/04/20 02:49:09;;;;;;;10.73;7.88;;;;;;;7.29;100.00;99961.38;5033905;28;20052;-75
2021/04/20 02:51:37;;;;;;;11.45;8.35;;;;;;;7.25;100.00;99962.03;5052146;28;20039;-70
2021/04/20 02:54:04;;;;;;;10.70;7.70;;;;;;;7.22;100.00;99956.78;5053944;28;20083;-71
2021/04/20 02:56:30;;;;;;;11.57;8.50;;;;;;;7.32;100.00;99968.31;5053645;28;20457;-71
2021/04/20 02:59:00;;;;;;;10.43;7.60;;;;;;;7.33;100.00;99964.91;5049921;28;20475;-71
2021/04/20 03:01:29;;;;;;;11.52;8.23;;;;;;;7.25;100.00;99965.50;5036452;28;20040;-72
2021/04/20 03:03:55;;;;;;;11.45;7.97;;;;;;;7.15;100.00;99965.91;5019607;28;20025;-71
2021/04/20 03:06:20;;;;;;;11.98;8.02;;;;;;;6.95;100.00;99935.16;5033132;28;20032;-70
2021/04/20 03:08:47;;;;;;;9.02;6.05;;;;;;;6.92;100.00;99958.09;5037841;28;20033;-71
2021/04/20 03:11:20;;;;;;;8.02;5.43;;;;;;;6.93;100.00;99972.69;5043379;28;20124;-74
2021/04/20 03:13:46;;;;;;;10.27;5.63;;;;;;;6.89;100.00;99967.34;5052939;28;20021;-73
2021/04/20 03:16:14;;;;;;;9.05;6.18;;;;;;;6.53;100.00;99900.78;5051819;28;20354;-74
2021/04/20 03:18:39;;;;;;;7.70;5.68;;;;;;;6.73;100.00;99932.44;5052466;28;20392;-77
2021/04/20 03:21:09;;;;;;;6.53;4.68;;;;;;;6.87;100.00;99969.84;5053215;28;20072;-72
2021/04/20 03:23:35;;;;;;;7.22;4.47;;;;;;;6.92;100.00;99988.88;5052847;28;20021;-73
2021/04/20 03:26:02;;;;;;;6.20;3.88;;;;;;;6.87;100.00;99981.81;5053044;28;20025;-74
2021/04/20 03:28:27;;;;;;;5.60;4.15;;;;;;;6.89;100.00;99990.44;5052950;28;20056;-75
2021/04/20 03:30:54;;;;;;;7.05;3.67;;;;;;;6.40;100.00;99915.63;5052981;28;20064;-74
2021/04/20 03:33:24;;;;;;;7.45;3.85;;;;;;;6.51;100.00;99931.50;5052793;28;20028;-76
2021/04/20 03:36:11;;;;;;;7.50;3.83;;;;;;;6.74;100.00;99994.09;5052855;28;20384;-73
2021/04/20 03:38:36;;;;;;;7.07;4.35;;;;;;;6.84;100.00;100000.53;5052673;28;20388;-73
2021/04/20 03:41:11;;;;;;;6.18;4.18;;;;;;;6.71;100.00;99977.69;5052766;28;20039;-74
2021/04/20 03:43:40;;;;;;;6.78;3.90;;;;;;;6.89;100.00;100004.16;5052626;28;20200;-74
2021/04/20 03:46:12;;;;;;;5.70;3.67;;;;;;;6.88;100.00;99994.72;5052639;28;20046;-74
2021/04/20 03:48:42;;;;;;;5.50;3.22;;;;;;;6.84;100.00;100012.47;5052445;28;20498;-74
2021/04/20 03:51:12;;;;;;;6.35;3.78;;;;;;;6.91;100.00;100017.06;5046810;28;20021;-73
2021/04/20 03:53:41;;;;;;;8.70;3.53;;;;;;;6.69;100.00;100017.78;5052569;28;20029;-74
2021/04/20 03:56:08;;;;;;;7.10;3.75;;;;;;;6.80;100.00;100011.44;5051949;28;20386;-73
2021/04/20 03:58:36;;;;;;;7.43;3.20;;;;;;;6.86;100.00;100026.25;5052228;28;20035;-74
2021/04/20 04:01:06;;;;;;;5.32;3.13;;;;;;;6.85;100.00;100039.88;5052373;28;20020;-74
2021/04/20 04:03:35;;;;;;;6.70;3.58;;;;;;;6.71;100.00;100019.59;5052321;28;20024;-73
2021/04/20 04:06:03;;;;;;;6.15;3.33;;;;;;;6.81;100.00;100026.03;5051866;28;20491;-73
2021/04/20 04:08:32;;;;;;;5.85;3.58;;;;;;;6.95;100.00;100040.38;5052083;28;20028;-74
2021/04/20 04:11:02;;;;;;;7.20;3.67;;;;;;;6.79;100.00;100013.13;5051815;28;20025;-77
2021/04/20 04:13:28;;;;;;;;;;;;;;;6.78;100.00;100041.28;5052225;28;20029;-73
2021/04/20 04:16:04;;;;;;;5.20;3.10;;;;;;;6.25;100.00;99964.53;5052543;28;19999;-74
2021/04/20 04:18:32;;;;;;;6.20;3.65;;;;;;;6.78;100.00;100055.00;5051591;28;20027;-73
2021/04/20 04:21:01;;;;;;;5.63;3.50;;;;;;;6.74;100.00;100050.53;5052139;28;20052;-71
2021/04/20 04:23:42;;;;;;;6.78;3.95;;;;;;;6.67;100.00;100037.34;5052244;28;20036;-73
2021/04/20 04:26:11;;;;;;;6.53;4.05;;;;;;;6.82;100.00;100053.44;5013962;28;20134;-74
2021/04/20 04:28:39;;;;;;;6.20;3.78;;;;;;;6.80;100.00;100043.13;5027079;28;20037;-73
2021/04/20 04:31:09;;;;;;;7.80;3.92;;;;;;;6.94;100.00;100058.22;5050732;28;20036;-74
2021/04/20 04:33:38;;;;;;;6.70;3.97;;;;;;;6.88;100.00;100061.44;5051970;28;20119;-74
2021/04/20 04:36:05;;;;;;;7.22;3.85;;;;;;;6.41;100.00;99965.25;5052071;28;20028;-74
2021/04/20 04:38:32;;;;;;;5.90;3.63;;;;;;;6.87;100.00;100056.22;5051990;28;20025;-74
2021/04/20 04:41:00;;;;;;;8.52;4.93;;;;;;;6.55;100.00;99994.06;5051954;28;20021;-74
2021/04/20 04:43:27;;;;;;;7.03;4.18;;;;;;;6.97;100.00;100050.69;5052028;28;20021;-74
2021/04/20 04:45:56;;;;;;;7.22;4.35;;;;;;;6.94;100.00;100038.59;5051701;28;20086;-73
2021/04/20 04:48:24;;;;;;;5.68;3.42;;;;;;;7.15;100.00;100066.00;5032752;28;20041;-73
2021/04/20 04:50:51;;;;;;;8.00;4.03;;;;;;;7.06;100.00;100053.66;5033601;28;20040;-73
2021/04/20 04:53:18;;;;;;;6.28;3.75;;;;;;;7.30;100.00;100073.50;5051478;28;20111;-74
2021/04/20 04:55:43;;;;;;;6.95;4.35;;;;;;;7.31;100.00;100074.41;5051113;28;20471;-74
2021/04/20 04:58:09;;;;;;;6.90;4.70;;;;;;;7.27;100.00;100075.97;5051443;28;20025;-74
2021/04/20 05:00:36;;;;;;;6.75;4.50;;;;;;;7.20;100.00;100077.41;5051464;28;20032;-74
2021/04/20 05:03:05;;;;;;;7.47;4.30;;;;;;;7.01;100.00;100062.84;5051386;28;20471;-73
2021/04/20 05:05:32;;;;;;;8.07;5.13;;;;;;;7.27;100.00;100089.66;5051598;28;20047;-74
2021/04/20 05:08:01;;;;;;;8.88;4.90;;;;;;;7.16;100.00;100057.50;5051082;28;20033;-74
2021/04/20 05:10:27;;;;;;;5.78;3.80;;;;;;;6.93;100.00;100025.72;5051673;28;20033;-74
2021/04/20 05:12:53;;;;;;;7.68;4.60;;;;;;;7.29;100.00;100097.47;5043127;28;20039;-74
2021/04/20 05:15:20;;;;;;;8.57;4.57;;;;;;;7.39;100.00;100091.91;5051501;28;20033;-74
2021/04/20 05:17:47;;;;;;;8.07;4.65;;;;;;;7.22;100.00;100054.34;5051372;28;20036;-74
2021/04/20 05:20:17;;;;;;;9.30;4.40;;;;;;;7.47;100.00;100102.50;5050353;28;20507;-74
2021/04/20 05:22:42;;;;;;;;;;;;;;;7.56;100.00;100107.16;5000319;28;20041;-74
2021/04/20 05:25:14;;;;;;;7.30;4.63;;;;;;;7.52;100.00;100105.28;5050677;28;20348;-73
2021/04/20 05:27:39;;;;;;;9.25;5.03;;;;;;;7.43;100.00;100118.59;5050897;28;20017;-74
2021/04/20 05:30:06;;;;;;;8.50;4.50;;;;;;;7.38;100.00;100112.38;5051376;28;20031;-73
2021/04/20 05:32:32;;;;;;;6.82;4.55;;;;;;;7.08;100.00;100044.34;5051062;28;20482;-74
2021/04/20 05:35:02;;;;;;;8.40;5.03;;;;;;;7.48;100.00;100111.06;5050962;28;20017;-74
2021/04/20 05:37:32;;;;;;;;;;;;;;;7.47;100.00;100123.06;5032552;28;20033;-76
2021/04/20 05:40:08;;;;;;;6.65;4.00;;;;;;;7.39;100.00;100135.56;5050042;28;20323;-73
2021/04/20 05:42:34;;;;;;;8.18;5.18;;;;;;;7.31;100.00;100134.34;5051047;28;20414;-74
2021/04/20 05:45:00;;;;;;;8.05;5.10;;;;;;;7.41;100.00;100136.53;5036987;28;20037;-74
2021/04/20 05:47:26;;;;;;;8.05;5.75;;;;;;;7.37;100.00;100133.75;5051033;28;20036;-74
2021/04/20 05:49:59;;;;;;;7.72;4.57;;;;;;;7.46;100.00;100134.13;5051004;28;20021;-74
2021/04/20 05:52:25;;;;;;;9.45;5.03;;;;;;;7.09;100.00;100060.59;5050608;28;20033;-74
2021/04/20 05:54:57;;;;;;;7.30;4.60;;;;;;;7.51;100.00;100124.06;5050913;28;20032;-74
2021/04/20 05:57:23;;;;;;;8.10;4.90;;;;;;;7.66;100.00;100142.69;5051371;28;20033;-74
2021/04/20 05:59:52;;;;;;;7.53;5.47;;;;;;;7.69;100.00;100123.97;5032594;28;20035;-73
2021/04/20 06:02:18;;;;;;;8.67;4.87;;;;;;;7.68;100.00;100143.66;5050979;28;20033;-73
2021/04/20 06:04:45;;;;;;;10.18;4.85;;;;;;;7.73;100.00;100154.16;5050527;28;20041;-73
2021/04/20 06:07:16;;;;;;;7.10;5.25;;;;;;;7.38;100.00;100085.00;5050762;28;20032;-73
2021/04/20 06:09:45;;;;;;;7.72;5.03;;;;;;;7.94;100.00;100155.06;5049905;28;20441;-73
2021/04/20 06:12:12;;;;;;;10.40;6.30;;;;;;;8.07;100.00;100146.19;5050313;28;20029;-76
2021/04/20 06:14:39;;;;;;;8.13;5.57;;;;;;;8.13;100.00;100149.81;5050566;28;20086;-72
2021/04/20 06:17:09;;;;;;;8.20;4.85;;;;;;;7.91;99.63;100133.47;5050395;28;20108;-74
2021/04/20 06:19:36;;;;;;;8.25;4.63;;;;;;;7.88;99.79;100136.81;5050512;28;20123;-74
2021/04/20 06:22:03;;;;;;;6.35;4.20;;;;;;;7.19;99.26;100023.38;5050412;28;20067;-74
2021/04/20 06:24:30;;;;;;;67.55;28.60;;;;;;;7.85;100.00;100157.25;5050764;28;20029;-74
2021/04/20 06:26:57;;;;;;;25.42;15.38;;;;;;;7.45;100.00;100088.72;5050237;28;20079;-74
2021/04/20 06:29:22;;;;;;;47.17;40.97;;;;;;;7.97;100.00;100161.16;5043455;28;20033;-74
2021/04/20 06:31:49;;;;;;;11.85;8.75;;;;;;;8.04;100.00;100135.75;5043666;28;20039;-74
2021/04/20 06:34:15;;;;;;;7.68;4.80;;;;;;;8.02;99.63;100129.66;5050297;28;20060;-74
2021/04/20 06:36:41;;;;;;;6.97;5.55;;;;;;;8.31;100.00;100162.53;5050263;28;20478;-74
2021/04/20 06:39:08;;;;;;;12.57;6.82;;;;;;;7.89;99.80;100138.56;5032736;28;20410;-75
2021/04/20 06:41:36;;;;;;;6.75;4.00;;;;;;;8.23;99.09;100165.69;5050276;28;20028;-74
2021/04/20 06:44:13;;;;;;;4.55;3.33;;;;;;;8.16;98.01;100178.22;5050654;28;20110;-74
2021/04/20 06:46:47;;;;;;;5.40;3.80;;;;;;;8.18;97.82;100162.03;5049788;28;20068;-74
2021/04/20 06:49:22;;;;;;;4.97;3.20;;;;;;;8.22;97.85;100171.66;5050221;28;20032;-74
2021/04/20 06:51:57;;;;;;;5.97;3.80;;;;;;;8.19;98.35;100157.78;5049980;28;20540;-74
2021/04/20 06:54:22;;;;;;;8.27;4.70;;;;;;;8.40;97.94;100183.53;5052738;28;20032;-74
2021/04/20 06:57:15;;;;;;;7.68;3.72;;;;;;;8.31;96.64;100189.16;5053860;28;20029;-74
2021/04/20 07:00:19;;;;;;;5.55;3.47;;;;;;;8.40;98.17;100186.09;5011776;28;20100;-75
2021/04/20 07:03:02;;;;;;;5.38;3.38;;;;;;;8.19;96.98;100162.94;4994982;28;20049;-73
2021/04/20 07:05:40;;;;;;;16.02;12.13;;;;;;;8.52;97.71;100183.16;5011525;28;20038;-74
2021/04/20 07:08:27;;;;;;;11.10;8.32;;;;;;;8.17;96.48;100121.69;4994796;28;20026;-74
2021/04/20 07:10:56;;;;;;;9.52;7.57;;;;;;;8.63;96.39;100188.75;5000782;28;20125;-74
2021/04/20 07:13:24;;;;;;;42.58;38.60;;;;;;;8.62;96.38;100171.53;5007525;28;20104;-74
2021/04/20 07:16:17;;;;;;;12.70;11.40;;;;;;;8.80;97.33;100187.72;5011565;28;20033;-74
2021/04/20 07:19:18;;;;;;;12.57;10.52;;;;;;;8.97;95.78;100180.66;4952989;28;20057;-74
2021/04/20 07:21:52;;;;;;;9.52;6.18;;;;;;;9.03;95.23;100188.63;4952550;28;20062;-73
2021/04/20 07:24:41;;;;;;;7.93;4.85;;;;;;;9.04;94.42;100181.78;4936835;28;20050;-74
2021/04/20 07:27:26;;;;;;;8.05;4.60;;;;;;;9.25;94.48;100202.31;4895650;29;20508;-74
2021/04/20 07:29:57;;;;;;;7.32;5.05;;;;;;;9.31;92.30;100204.22;4877702;29;20053;-74
2021/04/20 07:32:44;;;;;;;7.43;5.63;;;;;;;9.12;92.23;100202.66;4878239;29;20124;-72
2021/04/20 07:35:12;;;;;;;10.70;8.77;;;;;;;9.20;92.19;100206.41;4877196;29;20044;-74
2021/04/20 07:37:48;;;;;;;7.93;7.00;;;;;;;9.26;92.75;100210.91;4893988;29;20056;-74
2021/04/20 07:40:25;;;;;;;7.93;6.50;;;;;;;9.41;91.89;100192.56;4896172;29;20032;-74
2021/04/20 07:43:21;;;;;;;5.97;4.65;;;;;;;9.66;90.53;100204.69;4895516;29;20141;-74
2021/04/20 07:46:14;;;;;;;5.88;3.58;;;;;;;9.39;89.22;100146.16;4895728;29;20529;-75
2021/04/20 07:49:06;;;;;;;6.40;3.42;;;;;;;9.90;87.93;100202.09;4895227;29;20076;-74
2021/04/20 07:51:40;;;;;;;4.13;2.88;;;;;;;9.86;87.74;100207.97;4895606;29;20123;-74
2021/04/20 07:54:17;;;;;;;4.55;3.22;;;;;;;9.85;86.64;100201.91;4895877;29;20059;-75
2021/04/20 07:56:58;;;;;;;4.53;2.95;;;;;;;9.92;86.49;100215.03;4899775;29;20042;-75
2021/04/20 07:59:49;;;;;;;5.40;4.07;;;;;;;10.03;86.06;100199.13;4934211;28;20047;-75
2021/04/20 08:02:31;;;;;;;5.53;4.20;;;;;;;10.31;83.66;100219.84;4935787;28;20039;-75
2021/04/20 08:05:13;;;;;;;6.65;5.53;;;;;;;10.12;83.50;100156.41;4948442;28;20039;-76
2021/04/20 08:07:46;;;;;;;4.10;2.90;;;;;;;10.47;83.32;100216.97;5020312;28;20044;-76
2021/04/20 08:10:13;;;;;;;2.50;1.90;;;;;;;10.40;81.67;100217.56;5052238;28;20540;-75
2021/04/20 08:13:15;;;;;;;4.75;2.40;;;;;;;10.55;83.83;100213.75;5051627;28;20021;-75
2021/04/20 08:15:49;;;;;;;8.00;5.65;;;;;;;10.38;81.02;100153.84;5051826;28;20025;-76
2021/04/20 08:18:48;;;;;;;3.75;2.50;;;;;;;10.83;83.54;100211.25;5052038;28;20033;-76
2021/04/20 08:21:14;;;;;;;16.75;13.40;;;;;;;11.10;80.71;100212.03;5034607;28;20057;-76
2021/04/20 08:23:46;;;;;;;20.13;15.48;;;;;;;11.20;79.57;100208.03;5055136;28;20029;-76
2021/04/20 08:26:19;;;;;;;5.55;3.90;;;;;;;11.29;77.33;100210.88;5051701;28;20055;-76
2021/04/20 08:28:51;;;;;;;5.63;4.20;;;;;;;11.30;76.37;100189.38;5033426;28;20098;-76
2021/04/20 08:31:30;;;;;;;5.75;3.47;;;;;;;11.00;79.53;100151.47;5051164;28;20150;-76
2021/04/20 08:34:03;;;;;;;4.45;2.72;;;;;;;11.13;80.99;100202.69;5050811;28;20407;-76
2021/04/20 08:36:38;;;;;;;5.07;2.90;;;;;;;11.02;79.34;100206.66;5062978;28;20108;-77
2021/04/20 08:39:17;;;;;;;3.65;2.30;;;;;;;11.13;77.61;100223.34;5016138;28;20115;-77
2021/04/20 08:42:17;;;;;;;11.02;7.68;;;;;;;11.10;78.01;100228.44;5049103;28;20522;-80
2021/04/20 08:45:21;;;;;;;3.60;2.58;;;;;;;11.03;78.78;100229.06;5050553;28;20121;-76
2021/04/20 08:48:01;;;;;;;5.95;2.80;;;;;;;11.11;75.93;100222.41;4959929;28;20460;-76
2021/04/20 08:50:29;;;;;;;2.92;2.10;;;;;;;11.13;76.77;100238.00;4970201;28;20158;-76
2021/04/20 08:53:01;;;;;;;4.70;2.28;;;;;;;11.31;78.75;100225.63;4968625;28;20062;-77
2021/04/20 08:55:46;;;;;;;8.32;3.88;;;;;;;11.42;74.90;100231.09;4969129;28;20121;-78
2021/04/20 08:58:45;;;;;;;3.30;2.03;;;;;;;11.39;74.39;100231.03;4969728;28;20072;-76
2021/04/20 09:01:32;;;;;;;5.25;3.50;;;;;;;11.42;74.20;100233.69;4970269;28;20038;-77
2021/04/20 09:04:32;;;;;;;19.55;15.30;;;;;;;11.63;71.53;100227.41;4972904;28;20034;-75
2021/04/20 09:07:10;;;;;;;8.52;5.97;;;;;;;11.72;73.91;100227.66;4980675;28;20085;-76
2021/04/20 09:09:38;;;;;;;3.90;2.63;;;;;;;11.67;72.62;100221.47;4979487;28;20038;-76
2021/04/20 09:12:10;;;;;;;9.15;7.97;;;;;;;11.51;70.50;100167.59;4984107;28;20186;-76
2021/04/20 09:14:38;;;;;;;4.68;2.25;;;;;;;11.95;71.91;100222.22;4969699;28;20520;-76
2021/04/20 09:17:10;;;;;;;6.63;5.95;;;;;;;11.88;69.33;100195.34;4967378;28;20432;-78
2021/04/20 09:19:49;;;;;;;5.72;3.47;;;;;;;12.12;70.43;100218.44;4973184;28;20593;-76
2021/04/20 09:22:28;;;;;;;3.53;2.00;;;;;;;12.24;67.69;100217.88;4979820;28;20042;-76
2021/04/20 09:25:13;;;;;;;3.60;2.30;;;;;;;12.16;64.46;100231.47;5051426;28;20021;-76
2021/04/20 09:28:16;;;;;;;4.07;2.60;;;;;;;12.10;65.84;100220.13;5050382;28;20028;-76
2021/04/20 09:30:58;;;;;;;3.00;2.10;;;;;;;12.13;65.51;100216.72;5051566;28;20021;-76
2021/04/20 09:33:33;;;;;;;6.97;3.80;;;;;;;12.48;68.50;100223.66;5051863;28;20088;-76
2021/04/20 09:35:59;;;;;;;3.92;2.60;;;;;;;12.79;64.39;100217.50;5051362;28;20398;-76
2021/04/20 09:38:26;;;;;;;3.83;2.30;;;;;;;13.00;62.41;100206.78;5051542;28;20115;-77
2021/04/20 09:40:53;;;;;;;3.20;1.90;;;;;;;13.02;63.75;100207.69;5051438;28;20039;-77
2021/04/20 09:43:24;;;;;;;116.45;49.33;;;;;;;13.30;61.61;100218.66;5051237;28;20033;-77
2021/04/20 09:46:32;;;;;;;3.35;1.90;;;;;;;13.51;63.11;100218.28;5051353;28;20032;-76
2021/04/20 09:49:12;;;;;;;4.10;2.13;;;;;;;13.20;58.55;100193.38;4961356;28;20035;-77
2021/04/20 09:51:55;;;;;;;4.07;2.58;;;;;;;13.61;57.00;100216.75;4958369;28;20038;-76
2021/04/20 09:54:31;;;;;;;3.08;1.95;;;;;;;13.85;64.47;100215.50;4960769;28;20589;-76
2021/04/20 09:57:01;;;;;;;1.92;1.52;;;;;;;13.75;56.89;100211.84;4961868;28;20027;-73
2021/04/20 09:59:57;;;;;;;2.60;1.70;;;;;;;14.12;62.19;100216.84;4958379;28;20042;-73
2021/04/20 10:02:28;;;;;;;2.30;1.77;;;;;;;14.08;57.27;100213.31;4926711;29;20102;-74
2021/04/20 10:04:53;;;;;;;2.53;1.85;;;;;;;14.13;58.09;100211.69;4913660;29;20040;-73
2021/04/20 10:07:49;;;;;;;1.90;1.67;;;;;;;14.26;56.73;100205.00;4915427;29;20502;-73
2021/04/20 10:10:19;;;;;;;1.92;1.52;;;;;;;14.40;57.78;100206.13;4913923;29;20098;-74
2021/04/20 10:12:47;;;;;;;;;;;;;;;14.47;58.30;100206.22;4916097;29;20040;-73
2021/04/20 10:15:26;;;;;;;8.35;5.50;;;;;;;14.78;56.98;100206.72;4913703;29;19915;-74
2021/04/20 10:18:04;;;;;;;4.80;3.23;;;;;;;14.50;54.18;100199.34;4915646;29;20063;-75
2021/04/20 10:20:48;;;;;;;2.50;1.80;;;;;;;14.37;58.13;100140.28;4914777;29;20127;-74
2021/04/20 10:23:43;;;;;;;10.63;6.53;;;;;;;14.61;54.90;100204.72;4913389;29;20044;-74
2021/04/20 10:26:27;;;;;;;3.05;2.22;;;;;;;14.71;54.84;100196.25;4946408;28;20151;-74
2021/04/20 10:28:57;;;;;;;3.53;2.20;;;;;;;14.89;56.58;100207.75;4970784;28;20062;-74
2021/04/20 10:31:53;;;;;;;3.05;2.22;;;;;;;14.42;55.44;100192.25;4972457;28;20042;-74
2021/04/20 10:34:21;;;;;;;4.95;3.50;;;;;;;14.77;54.55;100200.66;4951976;29;20039;-77
2021/04/20 10:36:56;;;;;;;2.35;2.00;;;;;;;14.85;54.03;100201.66;4953688;29;20414;-77
2021/04/20 10:39:23;;;;;;;8.55;4.10;;;;;;;15.02;57.13;100207.09;4977444;28;20042;-75
2021/04/20 10:41:53;;;;;;;4.05;2.45;;;;;;;15.12;52.42;100202.03;4994324;28;20038;-78
2021/04/20 10:44:23;;;;;;;38.60;20.38;;;;;;;15.33;56.57;100206.66;4998918;28;20037;-76
2021/04/20 10:46:55;;;;;;;6.13;3.78;;;;;;;15.35;53.77;100199.75;5008881;28;20034;-76
2021/04/20 10:49:23;;;;;;;4.30;2.42;;;;;;;15.19;52.63;100206.50;5001846;28;20794;-75
2021/04/20 10:51:53;;;;;;;5.45;3.17;;;;;;;15.19;55.61;100203.88;5002834;28;20180;-75
2021/04/20 10:54:20;;;;;;;4.15;2.67;;;;;;;15.03;53.03;100195.00;5001808;28;20026;-75
2021/04/20 10:56:53;;;;;;;3.20;2.45;;;;;;;14.94;52.72;100200.94;5000976;28;20524;-77
2021/04/20 10:59:27;;;;;;;3.70;2.60;;;;;;;14.70;52.42;100175.44;5008277;28;20033;-77
2021/04/20 11:01:56;;;;;;;7.68;4.32;;;;;;;14.91;55.56;100207.81;4997447;28;20030;-75
2021/04/20 11:04:23;;;;;;;5.53;3.88;;;;;;;14.39;58.58;100198.28;5000029;28;20047;-78
2021/04/20 11:07:09;;;;;;;8.52;4.50;;;;;;;14.07;57.37;100215.03;5001953;28;20506;-74
2021/04/20 11:09:34;;;;;;;4.40;3.10;;;;;;;13.59;59.25;100197.69;4984658;28;20780;-74
2021/04/20 11:12:14;;;;;;;3.80;2.90;;;;;;;13.33;60.50;100150.44;5038067;28;20061;-73
2021/04/20 11:14:47;;;;;;;;;;;;;;;13.79;59.76;100212.78;5042874;28;20068;-79
2021/04/20 11:17:41;;;;;;;3.28;2.65;;;;;;;13.63;61.15;100209.84;5024811;28;19913;-79
2021/04/20 11:20:09;;;;;;;4.32;2.70;;;;;;;13.41;62.51;100224.13;5043192;28;20410;-79
2021/04/20 11:22:56;;;;;;;3.90;2.65;;;;;;;13.32;61.26;100206.63;5042558;28;20108;-79
2021/04/20 11:25:30;;;;;;;7.57;4.53;;;;;;;13.71;64.49;100223.00;5042475;28;20021;-78
2021/04/20 11:28:00;;;;;;;10.98;7.03;;;;;;;13.66;66.82;100224.63;5042768;28;20027;-78
2021/04/20 11:30:32;;;;;;;8.13;5.28;;;;;;;13.42;68.12;100205.09;5043687;28;20394;-79
2021/04/20 11:33:04;;;;;;;7.22;5.05;;;;;;;13.53;70.09;100231.28;5044044;28;20558;-79
2021/04/20 11:35:29;;;;;;;8.55;5.40;;;;;;;13.35;70.27;100209.25;5043492;28;20026;-76
2021/04/20 11:38:02;;;;;;;8.32;5.50;;;;;;;13.43;67.00;100223.31;5041703;28;20549;-78
2021/04/20 11:40:37;;;;;;;15.90;8.65;;;;;;;13.27;69.22;100215.97;5042811;28;20025;-78
2021/04/20 11:43:04;;;;;;;6.78;4.47;;;;;;;12.73;68.62;100170.75;5042534;28;20022;-77
2021/04/20 11:45:37;;;;;;;7.65;5.28;;;;;;;13.14;70.86;100222.63;5042543;28;20532;-78
2021/04/20 11:48:11;;;;;;;8.35;5.15;;;;;;;13.21;68.49;100224.53;5042230;28;20057;-79